createdAt,value
2018-10-02T00:01:26.462Z,12.10
2018-10-02T00:03:55.509Z,11.27
2018-10-02T00:06:24.476Z,12.93
2018-10-02T00:08:53.442Z,16.00
2018-10-02T00:11:27.538Z,12.30
2018-10-02T00:14:01.644Z,9.63
2018-10-02T00:16:30.660Z,9.90
2018-10-02T00:18:59.622Z,11.80
2018-10-02T00:21:28.558Z,9.43
2018-10-02T00:23:57.567Z,8.30
2018-10-02T00:26:26.520Z,10.17
2018-10-02T00:28:55.477Z,11.37
2018-10-02T00:31:24.493Z,7.97
2018-10-02T00:33:53.510Z,7.33
2018-10-02T00:36:22.502Z,7.63
2018-10-02T00:38:51.506Z,6.97
2018-10-02T00:41:20.469Z,9.80
2018-10-02T00:43:49.750Z,8.47
2018-10-02T00:46:18.704Z,4.97
2018-10-02T00:48:47.627Z,8.33
2018-10-02T00:51:16.618Z,6.77
2018-10-02T00:53:45.555Z,6.60
2018-10-02T00:56:14.532Z,6.77
2018-10-02T00:58:43.422Z,5.27
2018-10-02T01:01:12.369Z,9.53
2018-10-02T01:03:41.513Z,5.23
2018-10-02T01:06:10.554Z,6.93
2018-10-02T01:08:39.542Z,4.50
2018-10-02T01:11:08.507Z,4.20
2018-10-02T01:13:37.633Z,4.60
2018-10-02T01:16:06.701Z,7.47
2018-10-02T01:18:35.642Z,5.87
2018-10-02T01:21:04.611Z,4.27
2018-10-02T01:23:33.516Z,5.47
2018-10-02T01:26:02.562Z,5.87
2018-10-02T01:28:31.510Z,4.90
2018-10-02T01:31:00.531Z,6.67
2018-10-02T01:33:29.599Z,5.73
2018-10-02T01:35:58.617Z,7.40
2018-10-02T01:38:27.570Z,5.13
2018-10-02T01:40:56.490Z,4.27
2018-10-02T01:43:25.474Z,7.87
2018-10-02T01:45:54.461Z,5.50
2018-10-02T01:48:23.433Z,4.33
2018-10-02T01:50:52.444Z,4.63
2018-10-02T01:53:21.450Z,5.00
2018-10-02T01:55:50.407Z,4.33
2018-10-02T01:58:19.402Z,5.73
2018-10-02T02:00:48.337Z,4.73
2018-10-02T02:03:17.322Z,4.50
2018-10-02T02:05:46.262Z,5.87
2018-10-02T02:08:15.259Z,3.97
2018-10-02T02:10:44.220Z,3.63
2018-10-02T02:13:13.242Z,3.20
2018-10-02T02:15:42.210Z,4.60
2018-10-02T02:18:11.154Z,4.77
2018-10-02T02:20:40.083Z,6.23
2018-10-02T02:23:09.063Z,2.73
2018-10-02T02:25:38.019Z,6.10
2018-10-02T02:28:06.978Z,5.03
2018-10-02T02:30:36.074Z,4.20
2018-10-02T02:33:05.243Z,4.43
2018-10-02T02:35:34.268Z,4.40
2018-10-02T02:38:03.203Z,4.53
2018-10-02T02:40:32.177Z,4.77
2018-10-02T02:43:01.282Z,3.83
2018-10-02T02:45:30.282Z,2.50
2018-10-02T02:48:04.417Z,6.57
2018-10-02T02:50:38.529Z,3.63
2018-10-02T02:53:10.786Z,4.50
2018-10-02T02:55:39.795Z,4.73
2018-10-02T02:58:08.717Z,4.50
2018-10-02T03:00:37.763Z,2.77
2018-10-02T03:03:06.782Z,2.40
2018-10-02T03:05:35.791Z,3.93
2018-10-02T03:08:04.774Z,4.33
2018-10-02T03:10:33.630Z,3.77
2018-10-02T03:13:02.677Z,6.63
2018-10-02T03:15:31.659Z,5.23
2018-10-02T03:18:00.630Z,3.43
2018-10-02T03:20:29.844Z,4.73
2018-10-02T03:22:58.775Z,4.07
2018-10-02T03:25:27.842Z,3.67
2018-10-02T03:27:56.811Z,4.37
2018-10-02T03:30:25.775Z,5.37
2018-10-02T03:32:54.709Z,3.63
2018-10-02T03:35:23.524Z,3.33
2018-10-02T03:37:52.501Z,3.07
2018-10-02T03:40:21.517Z,6.07
2018-10-02T03:42:50.400Z,5.40
2018-10-02T03:45:19.372Z,6.13
2018-10-02T03:47:48.313Z,2.87
2018-10-02T03:50:17.242Z,4.63
2018-10-02T03:52:46.246Z,3.03
2018-10-02T03:55:15.202Z,6.07
2018-10-02T03:57:44.166Z,4.50
2018-10-02T04:00:13.132Z,5.27
2018-10-02T04:02:42.162Z,3.83
2018-10-02T04:05:11.142Z,5.40
2018-10-02T04:07:40.154Z,4.43
2018-10-02T04:10:09.089Z,2.80
2018-10-02T04:12:38.051Z,3.57
2018-10-02T04:15:07.145Z,3.00
2018-10-02T04:17:36.158Z,4.03
2018-10-02T04:20:05.130Z,3.57
2018-10-02T04:22:34.030Z,3.80
2018-10-02T04:25:03.178Z,4.30
2018-10-02T04:27:32.204Z,3.90
2018-10-02T04:30:09.771Z,5.20
2018-10-02T04:32:38.738Z,4.50
2018-10-02T04:35:07.694Z,4.50
2018-10-02T04:37:36.683Z,4.83
2018-10-02T04:40:05.589Z,3.70
2018-10-02T04:42:34.490Z,6.40
2018-10-02T04:45:03.443Z,3.50
2018-10-02T04:47:32.386Z,5.47
2018-10-02T04:50:01.365Z,3.90
2018-10-02T04:52:30.262Z,3.37
2018-10-02T04:54:59.306Z,5.60
2018-10-02T04:57:28.172Z,4.37
2018-10-02T04:59:57.182Z,4.30
2018-10-02T05:02:26.211Z,3.60
2018-10-02T05:04:55.144Z,5.33
2018-10-02T05:07:24.067Z,3.70
2018-10-02T05:09:52.924Z,4.33
2018-10-02T05:12:21.950Z,4.57
2018-10-02T05:14:50.967Z,4.33
2018-10-02T05:17:19.937Z,5.73
2018-10-02T05:19:48.941Z,4.60
2018-10-02T05:22:17.850Z,5.60
2018-10-02T05:24:46.775Z,5.50
2018-10-02T05:27:15.783Z,7.97
2018-10-02T05:29:44.777Z,6.07
2018-10-02T05:32:13.849Z,5.33
2018-10-02T05:34:42.769Z,4.90
2018-10-02T05:37:11.742Z,6.23
2018-10-02T05:39:41.154Z,6.77
2018-10-02T05:42:10.193Z,9.33
2018-10-02T05:44:39.182Z,7.00
2018-10-02T05:47:08.158Z,8.63
2018-10-02T05:49:37.243Z,8.10
2018-10-02T05:52:06.244Z,9.63
2018-10-02T05:54:35.206Z,9.43
2018-10-02T05:57:04.337Z,10.30
2018-10-02T05:59:33.274Z,11.63
2018-10-02T06:02:09.771Z,10.23
2018-10-02T06:04:38.838Z,9.93
2018-10-02T06:07:07.794Z,10.23
2018-10-02T06:09:36.777Z,8.60
2018-10-02T06:12:05.830Z,13.30
2018-10-02T06:14:34.782Z,9.90
2018-10-02T06:17:03.919Z,10.57
2018-10-02T06:19:32.873Z,11.13
2018-10-02T06:22:01.868Z,10.67
2018-10-02T06:24:30.897Z,12.47
2018-10-02T06:26:59.799Z,10.40
2018-10-02T06:29:28.799Z,8.50
2018-10-02T06:31:57.759Z,13.93
2018-10-02T06:34:26.840Z,11.03
2018-10-02T06:36:58.726Z,9.00
2018-10-02T06:39:29.649Z,10.20
2018-10-02T06:41:59.175Z,8.77
2018-10-02T06:44:28.312Z,9.50
2018-10-02T06:46:57.237Z,9.43
2018-10-02T06:49:26.371Z,8.27
2018-10-02T06:51:55.604Z,9.13
2018-10-02T06:54:24.566Z,7.00
2018-10-02T06:56:53.531Z,7.37
2018-10-02T06:59:22.542Z,7.13
2018-10-02T07:01:51.487Z,8.57
2018-10-02T07:04:20.510Z,6.13
2018-10-02T07:06:49.616Z,6.73
2018-10-02T07:09:18.562Z,7.73
2018-10-02T07:11:47.502Z,10.10
2018-10-02T07:14:16.588Z,5.50
2018-10-02T07:16:45.556Z,6.20
2018-10-02T07:19:14.566Z,5.40
2018-10-02T07:21:43.553Z,6.13
2018-10-02T07:24:12.624Z,5.47
2018-10-02T07:26:41.777Z,6.07
2018-10-02T07:29:10.768Z,4.90
2018-10-02T07:31:39.685Z,4.67
2018-10-02T07:34:08.542Z,5.87
2018-10-02T07:36:37.835Z,5.90
2018-10-02T07:39:07.806Z,4.03
2018-10-02T07:41:36.769Z,4.80
2018-10-02T07:44:05.760Z,5.30
2018-10-02T07:46:34.692Z,4.90
2018-10-02T07:49:03.691Z,4.10
2018-10-02T07:51:32.668Z,3.77
2018-10-02T07:54:01.642Z,3.17
2018-10-02T07:56:30.585Z,3.37
2018-10-02T07:58:59.568Z,2.83
2018-10-02T08:01:28.667Z,2.80
2018-10-02T08:03:57.636Z,4.63
2018-10-02T08:06:26.582Z,4.97
2018-10-02T08:08:55.592Z,4.57
2018-10-02T08:11:24.547Z,3.73
2018-10-02T08:13:53.559Z,2.83
2018-10-02T08:16:22.525Z,3.63
2018-10-02T08:18:51.425Z,4.40
2018-10-02T08:21:20.333Z,4.23
2018-10-02T08:23:49.327Z,3.10
2018-10-02T08:26:18.240Z,3.60
2018-10-02T08:28:47.241Z,2.27
2018-10-02T08:31:16.198Z,2.50
2018-10-02T08:33:45.292Z,3.43
2018-10-02T08:36:14.360Z,2.00
2018-10-02T08:38:43.393Z,3.47
2018-10-02T08:41:12.368Z,2.50
2018-10-02T08:43:41.476Z,4.23
2018-10-02T08:46:10.277Z,3.30
2018-10-02T08:48:39.202Z,2.53
2018-10-02T08:51:08.137Z,2.60
2018-10-02T08:53:37.095Z,3.97
2018-10-02T08:56:06.072Z,2.00
2018-10-02T08:58:35.108Z,4.27
2018-10-02T09:01:04.195Z,4.13
2018-10-02T09:03:33.126Z,3.60
2018-10-02T09:06:02.003Z,2.70
2018-10-02T09:08:30.908Z,2.30
2018-10-02T09:10:59.892Z,2.87
2018-10-02T09:13:28.843Z,3.20
2018-10-02T09:15:57.967Z,2.93
2018-10-02T09:18:27.083Z,3.40
2018-10-02T09:20:56.056Z,4.37
2018-10-02T09:23:24.938Z,3.63
2018-10-02T09:25:53.862Z,2.10
2018-10-02T09:28:22.833Z,2.50
2018-10-02T09:30:57.015Z,2.70
2018-10-02T09:33:31.014Z,2.97
2018-10-02T09:36:05.201Z,2.70
2018-10-02T09:38:39.435Z,3.77
2018-10-02T09:41:13.594Z,3.83
2018-10-02T09:43:58.757Z,2.80
2018-10-02T09:46:27.888Z,2.63
2018-10-02T09:48:57.083Z,2.60
2018-10-02T09:51:26.077Z,5.80
2018-10-02T09:53:54.913Z,3.57
2018-10-02T09:56:23.923Z,6.50
2018-10-02T09:58:52.921Z,2.23
2018-10-02T10:02:25.648Z,2.93
2018-10-02T10:04:54.489Z,3.87
2018-10-02T10:07:23.422Z,4.07
2018-10-02T10:09:52.358Z,3.50
2018-10-02T10:12:21.378Z,3.37
2018-10-02T10:14:50.303Z,2.63
2018-10-02T10:17:19.349Z,4.13
2018-10-02T10:19:48.240Z,5.17
2018-10-02T10:22:17.222Z,4.50
2018-10-02T10:24:46.179Z,2.50
2018-10-02T10:27:15.042Z,2.17
2018-10-02T10:29:43.997Z,2.30
2018-10-02T10:32:12.906Z,2.80
2018-10-02T10:34:41.963Z,2.53
2018-10-02T10:37:10.903Z,2.57
2018-10-02T10:39:39.790Z,2.73
2018-10-02T10:42:08.800Z,3.50
2018-10-02T10:44:37.782Z,3.07
2018-10-02T10:47:06.700Z,7.37
2018-10-02T10:49:35.705Z,3.00
2018-10-02T10:52:04.604Z,6.30
2018-10-02T10:54:33.538Z,3.73
2018-10-02T10:57:02.503Z,5.17
2018-10-02T10:59:31.466Z,3.17
2018-10-02T11:02:00.382Z,5.97
2018-10-02T11:04:29.396Z,3.83
2018-10-02T11:06:58.278Z,4.83
2018-10-02T11:09:27.297Z,3.90
2018-10-02T11:11:56.182Z,4.50
2018-10-02T11:14:25.061Z,5.50
2018-10-02T11:16:54.063Z,3.27
2018-10-02T11:19:23.213Z,4.90
2018-10-02T11:21:52.164Z,4.23
2018-10-02T11:24:21.094Z,3.20
2018-10-02T11:26:53.761Z,3.37
2018-10-02T11:29:22.782Z,4.10
2018-10-02T11:31:51.745Z,4.63
2018-10-02T11:34:20.747Z,2.77
2018-10-02T11:36:49.713Z,2.77
2018-10-02T11:39:18.697Z,7.43
2018-10-02T11:41:47.610Z,2.10
2018-10-02T11:44:16.663Z,2.17
2018-10-02T11:46:45.556Z,3.07
2018-10-02T11:49:14.523Z,4.17
2018-10-02T11:51:43.577Z,3.63
2018-10-02T11:54:12.436Z,2.63
2018-10-02T11:56:41.399Z,4.00
2018-10-02T11:59:10.300Z,3.60
2018-10-02T12:01:39.183Z,4.10
2018-10-02T12:04:08.328Z,3.37
2018-10-02T12:06:37.271Z,3.60
2018-10-02T12:09:07.823Z,4.90
2018-10-02T12:11:36.854Z,2.17
2018-10-02T12:14:05.906Z,2.93
2018-10-02T12:16:34.786Z,3.27
2018-10-02T12:19:03.703Z,3.07
2018-10-02T12:21:32.701Z,4.50
2018-10-02T12:24:01.671Z,2.53
2018-10-02T12:26:30.711Z,5.17
2018-10-02T12:28:59.705Z,6.87
2018-10-02T12:31:28.648Z,2.53
2018-10-02T12:33:57.621Z,4.57
2018-10-02T12:36:26.623Z,3.57
2018-10-02T12:38:55.622Z,3.87
2018-10-02T12:41:24.643Z,6.13
2018-10-02T12:43:53.536Z,3.13
2018-10-02T12:46:22.454Z,4.57
2018-10-02T12:48:51.444Z,3.73
2018-10-02T12:51:20.422Z,3.10
2018-10-02T12:53:49.320Z,3.10
2018-10-02T12:56:18.318Z,3.73
2018-10-02T12:58:47.298Z,2.83
2018-10-02T13:01:16.413Z,4.53
2018-10-02T13:03:45.342Z,2.80
2018-10-02T13:06:14.344Z,5.20
2018-10-02T13:08:43.279Z,3.23
2018-10-02T13:11:12.258Z,1.87
2018-10-02T13:13:41.271Z,2.50
2018-10-02T13:16:10.265Z,3.10
2018-10-02T13:18:39.317Z,4.97
2018-10-02T13:21:08.286Z,4.23
2018-10-02T13:23:37.273Z,5.20
2018-10-02T13:26:06.354Z,2.53
2018-10-02T13:28:35.265Z,5.07
2018-10-02T13:31:04.262Z,3.83
2018-10-02T13:33:33.222Z,6.93
2018-10-02T13:36:02.260Z,3.00
2018-10-02T13:38:31.239Z,4.90
2018-10-02T13:41:00.278Z,3.70
2018-10-02T13:43:29.285Z,4.37
2018-10-02T13:45:58.291Z,4.17
2018-10-02T13:48:27.252Z,4.77
2018-10-02T13:50:56.189Z,2.40
2018-10-02T13:53:25.150Z,3.53
2018-10-02T13:55:54.063Z,4.60
2018-10-02T13:58:22.988Z,5.13
2018-10-02T14:00:51.926Z,5.60
2018-10-02T14:03:20.932Z,4.03
2018-10-02T14:05:49.903Z,3.10
2018-10-02T14:08:18.939Z,4.77
2018-10-02T14:10:47.894Z,3.40
2018-10-02T14:13:16.870Z,3.73
2018-10-02T14:15:45.943Z,3.40
2018-10-02T14:18:14.942Z,7.10
2018-10-02T14:20:43.909Z,5.20
2018-10-02T14:23:12.931Z,4.83
2018-10-02T14:25:41.905Z,5.63
2018-10-02T14:28:10.953Z,4.20
2018-10-02T14:30:39.878Z,3.83
2018-10-02T14:33:21.238Z,4.00
2018-10-02T14:35:50.234Z,2.93
2018-10-02T14:38:19.222Z,4.73
2018-10-02T14:40:48.304Z,3.70
2018-10-02T14:43:17.411Z,5.83
2018-10-02T14:45:47.238Z,3.97
2018-10-02T14:48:16.210Z,5.93
2018-10-02T14:50:45.196Z,4.00
2018-10-02T14:53:14.117Z,10.13
2018-10-02T14:55:43.107Z,4.67
2018-10-02T14:58:12.038Z,4.20
2018-10-02T15:00:41.039Z,4.63
2018-10-02T15:03:09.930Z,5.83
2018-10-02T15:05:38.850Z,5.37
2018-10-02T15:08:07.817Z,4.47
2018-10-02T15:10:36.791Z,3.10
2018-10-02T15:13:05.781Z,6.20
2018-10-02T15:15:34.805Z,5.13
2018-10-02T15:18:03.816Z,5.23
2018-10-02T15:20:32.689Z,6.83
2018-10-02T15:23:01.746Z,9.27
2018-10-02T15:25:30.682Z,6.87
2018-10-02T15:27:59.652Z,3.53
2018-10-02T15:30:28.642Z,7.27
2018-10-02T15:32:57.570Z,4.17
2018-10-02T15:35:26.437Z,6.03
2018-10-02T15:37:55.531Z,8.00
2018-10-02T15:40:24.481Z,2.83
2018-10-02T15:42:53.422Z,3.87
2018-10-02T15:45:22.498Z,7.83
2018-10-02T15:47:51.376Z,5.93
2018-10-02T15:50:20.470Z,5.33
2018-10-02T15:52:49.486Z,4.43
2018-10-02T15:55:18.543Z,4.87
2018-10-02T15:57:47.531Z,5.80
2018-10-02T16:00:16.554Z,8.60
2018-10-02T16:02:45.539Z,6.87
2018-10-02T16:05:14.403Z,5.47
2018-10-02T16:07:43.295Z,2.97
2018-10-02T16:10:12.326Z,7.67
2018-10-02T16:12:41.327Z,5.70
2018-10-02T16:15:10.325Z,4.60
2018-10-02T16:17:39.260Z,4.03
2018-10-02T16:20:08.236Z,2.77
2018-10-02T16:22:37.208Z,5.33
2018-10-02T16:25:06.357Z,5.20
2018-10-02T16:27:35.352Z,5.23
2018-10-02T16:30:04.367Z,3.77
2018-10-02T16:32:33.262Z,4.43
2018-10-02T16:35:02.238Z,6.73
2018-10-02T16:37:31.223Z,9.30
2018-10-02T16:40:00.198Z,3.87
2018-10-02T16:42:29.315Z,9.47
2018-10-02T16:44:58.342Z,5.57
2018-10-02T16:47:27.360Z,11.03
2018-10-02T16:49:56.282Z,7.57
2018-10-02T16:52:25.192Z,8.10
2018-10-02T16:54:54.143Z,3.97
2018-10-02T16:57:23.190Z,6.70
2018-10-02T16:59:52.052Z,5.70
2018-10-02T17:02:20.970Z,5.13
2018-10-02T17:04:49.902Z,6.90
2018-10-02T17:07:18.901Z,4.63
2018-10-02T17:09:47.877Z,4.23
2018-10-02T17:12:16.777Z,6.50
2018-10-02T17:14:45.727Z,6.83
2018-10-02T17:17:14.693Z,4.13
2018-10-02T17:19:43.627Z,8.23
2018-10-02T17:22:12.659Z,7.37
2018-10-02T17:24:41.606Z,5.40
2018-10-02T17:27:10.706Z,5.70
2018-10-02T17:29:39.779Z,6.33
2018-10-02T17:32:08.879Z,4.33
2018-10-02T17:34:37.831Z,5.00
2018-10-02T17:37:06.838Z,5.00
2018-10-02T17:39:35.824Z,2.80
2018-10-02T17:42:04.825Z,5.47
2018-10-02T17:44:33.875Z,5.83
2018-10-02T17:47:02.818Z,4.53
2018-10-02T17:49:31.763Z,7.23
2018-10-02T17:52:00.762Z,5.87
2018-10-02T17:54:29.801Z,4.37
2018-10-02T17:56:58.681Z,3.10
2018-10-02T17:59:27.661Z,3.30
2018-10-02T18:01:56.858Z,4.47
2018-10-02T18:04:26.033Z,4.90
2018-10-02T18:06:55.153Z,7.63
2018-10-02T18:09:24.300Z,4.70
2018-10-02T18:11:53.276Z,5.60
2018-10-02T18:14:22.410Z,7.40
2018-10-02T18:16:51.578Z,5.60
2018-10-02T18:19:20.618Z,8.73
2018-10-02T18:21:49.623Z,2.87
2018-10-02T18:24:18.732Z,6.03
2018-10-02T18:26:47.845Z,8.13
2018-10-02T18:29:16.830Z,5.50
2018-10-02T18:31:45.797Z,5.43
2018-10-02T18:34:14.861Z,4.97
2018-10-02T18:36:43.900Z,4.60
2018-10-02T18:39:12.957Z,4.97
2018-10-02T18:41:41.962Z,4.90
2018-10-02T18:44:10.937Z,6.87
2018-10-02T18:46:40.056Z,6.87
2018-10-02T18:49:09.248Z,8.67
2018-10-02T18:51:38.174Z,4.53
2018-10-02T18:54:07.102Z,6.70
2018-10-02T18:56:36.524Z,5.90
2018-10-02T18:59:05.782Z,4.73
2018-10-02T19:01:35.062Z,5.90
2018-10-02T19:04:04.538Z,4.00
2018-10-02T19:06:33.968Z,7.50
2018-10-02T19:09:08.608Z,8.27
2018-10-02T19:11:51.689Z,6.13
2018-10-02T19:14:21.771Z,6.47
2018-10-02T19:16:51.177Z,6.00
2018-10-02T19:19:25.291Z,5.30
2018-10-02T19:21:54.511Z,5.37
2018-10-02T19:24:23.891Z,4.27
2018-10-02T19:26:53.318Z,6.53
2018-10-02T19:29:22.787Z,6.80
2018-10-02T19:31:57.298Z,3.70
2018-10-02T19:34:26.853Z,6.47
2018-10-02T19:36:56.348Z,4.63
2018-10-02T19:39:27.695Z,4.47
2018-10-02T19:41:57.537Z,3.60
2018-10-02T19:44:27.154Z,5.27
2018-10-02T19:46:58.982Z,4.87
2018-10-02T19:49:30.058Z,4.90
2018-10-02T19:52:18.356Z,5.20
2018-10-02T19:54:48.547Z,4.63
2018-10-02T19:57:22.917Z,3.37
2018-10-02T19:59:52.209Z,5.77
2018-10-02T20:02:21.335Z,6.47
2018-10-02T20:04:50.396Z,8.70
2018-10-02T20:07:19.584Z,7.00
2018-10-02T20:09:48.523Z,6.90
2018-10-02T20:12:17.446Z,8.97
2018-10-02T20:14:46.447Z,6.50
2018-10-02T20:17:15.377Z,5.40
2018-10-02T20:19:44.492Z,6.00
2018-10-02T20:22:13.465Z,4.90
2018-10-02T20:24:42.478Z,6.03
2018-10-02T20:27:11.405Z,4.30
2018-10-02T20:29:40.322Z,6.97
2018-10-02T20:32:09.341Z,7.67
2018-10-02T20:34:38.401Z,6.27
2018-10-02T20:37:07.310Z,2.40
2018-10-02T20:39:36.315Z,2.53
2018-10-02T20:42:05.214Z,4.93
2018-10-02T20:44:34.207Z,4.90
2018-10-02T20:47:03.140Z,8.97
2018-10-02T20:49:32.195Z,3.53
2018-10-02T20:52:01.094Z,3.67
2018-10-02T20:54:30.068Z,3.17
2018-10-02T20:56:59.102Z,8.60
2018-10-02T20:59:28.073Z,7.03
2018-10-02T21:01:57.082Z,4.20
2018-10-02T21:04:25.962Z,5.63
2018-10-02T21:06:54.898Z,4.97
2018-10-02T21:09:23.819Z,5.77
2018-10-02T21:11:52.822Z,3.40
2018-10-02T21:14:21.822Z,2.77
2018-10-02T21:16:50.709Z,4.43
2018-10-02T21:19:19.718Z,6.47
2018-10-02T21:21:48.837Z,2.77
2018-10-02T21:24:17.738Z,4.47
2018-10-02T21:26:46.683Z,4.77
2018-10-02T21:29:19.576Z,2.47
2018-10-02T21:31:48.538Z,4.87
2018-10-02T21:34:17.462Z,5.90
2018-10-02T21:36:46.462Z,2.57
2018-10-02T21:39:15.496Z,4.80
2018-10-02T21:41:44.393Z,4.70
2018-10-02T21:44:13.369Z,1.67
2018-10-02T21:46:42.405Z,4.40
2018-10-02T21:49:11.403Z,6.70
2018-10-02T21:51:40.322Z,1.57
2018-10-02T21:54:09.296Z,4.53
2018-10-02T21:56:38.192Z,1.63
2018-10-02T21:59:07.135Z,2.93
2018-10-02T22:01:36.118Z,3.73
2018-10-02T22:04:05.175Z,1.83
2018-10-02T22:06:34.118Z,3.47
2018-10-02T22:09:03.171Z,2.10
2018-10-02T22:11:32.184Z,2.77
2018-10-02T22:14:01.261Z,2.40
2018-10-02T22:16:30.160Z,4.93
2018-10-02T22:18:59.141Z,3.93
2018-10-02T22:21:28.075Z,2.77
2018-10-02T22:23:57.168Z,3.67
2018-10-02T22:26:26.151Z,4.60
2018-10-02T22:28:55.232Z,3.73
2018-10-02T22:31:24.214Z,2.50
2018-10-02T22:33:53.137Z,2.60
2018-10-02T22:36:22.121Z,3.67
2018-10-02T22:38:51.199Z,2.87
2018-10-02T22:41:20.171Z,2.07
2018-10-02T22:43:49.349Z,2.40
2018-10-02T22:46:18.086Z,4.70
2018-10-02T22:48:46.994Z,2.77
2018-10-02T22:51:15.923Z,3.17
2018-10-02T22:53:44.922Z,6.80
2018-10-02T22:56:13.894Z,2.43
2018-10-02T22:58:42.878Z,8.27
2018-10-02T23:01:11.863Z,2.13
2018-10-02T23:03:40.749Z,2.73
2018-10-02T23:06:09.701Z,5.07
2018-10-02T23:08:38.572Z,5.30
2018-10-02T23:11:07.575Z,2.23
2018-10-02T23:13:36.522Z,3.07
2018-10-02T23:16:05.528Z,6.63
2018-10-02T23:18:34.506Z,2.20
2018-10-02T23:21:03.606Z,4.73
2018-10-02T23:23:32.551Z,4.97
2018-10-02T23:26:01.470Z,4.00
2018-10-02T23:28:30.492Z,2.90
2018-10-02T23:30:59.498Z,4.07
2018-10-02T23:33:28.437Z,3.53
2018-10-02T23:35:57.546Z,3.83
2018-10-02T23:38:26.481Z,3.00
2018-10-02T23:40:55.476Z,4.87
2018-10-02T23:43:24.453Z,3.73
2018-10-02T23:45:53.390Z,3.57
2018-10-02T23:48:22.419Z,4.13
2018-10-02T23:50:51.430Z,2.73
2018-10-02T23:53:20.527Z,2.73
2018-10-02T23:55:49.482Z,5.53
2018-10-02T23:58:18.517Z,3.43
